sensor_id;sensor_type;location;lat;lon;timestamp;pressure;altitude;pressure_sealevel;temperature;humidity
49423;BME280;36998;51.974;20.150;2022-09-12T00:01:45;99754.53;;;10.89;72.15
49423;BME280;36998;51.974;20.150;2022-09-12T00:04:10;99752.84;;;10.88;72.17
49423;BME280;36998;51.974;20.150;2022-09-12T00:06:36;99750.47;;;10.85;72.81
49423;BME280;36998;51.974;20.150;2022-09-12T00:09:05;99750.47;;;10.85;72.65
49423;BME280;36998;51.974;20.150;2022-09-12T00:11:34;99744.25;;;10.85;72.34
49423;BME280;36998;51.974;20.150;2022-09-12T00:14:01;99747.13;;;10.83;72.74
49423;BME280;36998;51.974;20.150;2022-09-12T00:16:28;99745.44;;;10.82;72.77
49423;BME280;36998;51.974;20.150;2022-09-12T00:18:54;99748.13;;;10.82;72.58
49423;BME280;36998;51.974;20.150;2022-09-12T00:21:21;99745.81;;;10.79;72.53
49423;BME280;36998;51.974;20.150;2022-09-12T00:23:49;99742.44;;;10.77;72.62
49423;BME280;36998;51.974;20.150;2022-09-12T00:26:15;99742.44;;;10.77;72.82
49423;BME280;36998;51.974;20.150;2022-09-12T00:28:41;99745.16;;;10.77;72.38
49423;BME280;36998;51.974;20.150;2022-09-12T00:31:10;99745.84;;;10.71;73.01
49423;BME280;36998;51.974;20.150;2022-09-12T00:33:36;99739.41;;;10.72;72.93
49423;BME280;36998;51.974;20.150;2022-09-12T00:36:05;99746.03;;;10.69;73.27
49423;BME280;36998;51.974;20.150;2022-09-12T00:38:31;99740.81;;;10.68;72.98
49423;BME280;36998;51.974;20.150;2022-09-12T00:40:57;99745.53;;;10.66;72.70
49423;BME280;36998;51.974;20.150;2022-09-12T00:45:55;99740.88;;;10.60;72.78
49423;BME280;36998;51.974;20.150;2022-09-12T00:48:26;99748.28;;;10.58;73.09
49423;BME280;36998;51.974;20.150;2022-09-12T00:50:53;99750.31;;;10.55;72.95
49423;BME280;36998;51.974;20.150;2022-09-12T00:53:19;99755.91;;;10.54;73.36
49423;BME280;36998;51.974;20.150;2022-09-12T00:55:46;99744.41;;;10.52;73.00
49423;BME280;36998;51.974;20.150;2022-09-12T00:58:22;99756.06;;;10.52;73.36
49423;BME280;36998;51.974;20.150;2022-09-12T01:00:49;99756.41;;;10.49;73.21
49423;BME280;36998;51.974;20.150;2022-09-12T01:03:17;99756.78;;;10.46;73.38
49423;BME280;36998;51.974;20.150;2022-09-12T01:08:37;99754.59;;;10.42;73.36
49423;BME280;36998;51.974;20.150;2022-09-12T01:11:05;99763.88;;;10.39;73.45
49423;BME280;36998;51.974;20.150;2022-09-12T01:13:33;99754.31;;;10.37;73.61
49423;BME280;36998;51.974;20.150;2022-09-12T01:16:02;99756.47;;;10.33;73.43
49423;BME280;36998;51.974;20.150;2022-09-12T01:18:44;99757.16;;;10.35;73.40
49423;BME280;36998;51.974;20.150;2022-09-12T01:21:21;99757.34;;;10.34;73.56
49423;BME280;36998;51.974;20.150;2022-09-12T01:24:00;99747.72;;;10.31;73.53
49423;BME280;36998;51.974;20.150;2022-09-12T01:27:14;99752.44;;;10.29;73.69
49423;BME280;36998;51.974;20.150;2022-09-12T01:32:57;99757.69;;;10.22;74.02
49423;BME280;36998;51.974;20.150;2022-09-12T01:35:49;99753.31;;;10.21;73.89
49423;BME280;36998;51.974;20.150;2022-09-12T01:43:34;99764.44;;;10.18;74.12
49423;BME280;36998;51.974;20.150;2022-09-12T01:46:23;99775.03;;;10.20;73.84
49423;BME280;36998;51.974;20.150;2022-09-12T01:49:00;99773.56;;;10.17;74.45
49423;BME280;36998;51.974;20.150;2022-09-12T01:51:41;99761.06;;;10.16;74.35
49423;BME280;36998;51.974;20.150;2022-09-12T01:54:23;99777.44;;;10.15;74.35
49423;BME280;36998;51.974;20.150;2022-09-12T01:56:52;99772.19;;;10.13;74.58
49423;BME280;36998;51.974;20.150;2022-09-12T01:59:24;99776.41;;;10.16;74.71
49423;BME280;36998;51.974;20.150;2022-09-12T02:01:58;99778.28;;;10.15;74.39
49423;BME280;36998;51.974;20.150;2022-09-12T02:04:29;99776.75;;;10.13;74.56
49423;BME280;36998;51.974;20.150;2022-09-12T02:07:01;99775.94;;;10.12;74.75
49423;BME280;36998;51.974;20.150;2022-09-12T02:09:35;99775.94;;;10.12;74.83
49423;BME280;36998;51.974;20.150;2022-09-12T02:12:05;99775.09;;;10.12;74.71
49423;BME280;36998;51.974;20.150;2022-09-12T02:14:46;99768.84;;;10.11;74.47
49423;BME280;36998;51.974;20.150;2022-09-12T02:17:15;99776.28;;;10.09;74.76
49423;BME280;36998;51.974;20.150;2022-09-12T02:19:46;99771.91;;;10.08;74.92
49423;BME280;36998;51.974;20.150;2022-09-12T02:22:19;99774.59;;;10.08;74.48
49423;BME280;36998;51.974;20.150;2022-09-12T02:24:48;99780.16;;;10.06;74.86
49423;BME280;36998;51.974;20.150;2022-09-12T02:27:19;99784.88;;;10.04;75.22
49423;BME280;36998;51.974;20.150;2022-09-12T02:29:47;99779.16;;;10.07;74.82
49423;BME280;36998;51.974;20.150;2022-09-12T02:35:30;99784.38;;;10.09;74.76
49423;BME280;36998;51.974;20.150;2022-09-12T02:38:18;99778.28;;;10.07;74.70
49423;BME280;36998;51.974;20.150;2022-09-12T02:40:48;99778.28;;;10.07;74.78
49423;BME280;36998;51.974;20.150;2022-09-12T02:43:14;99772.25;;;10.05;74.80
49423;BME280;36998;51.974;20.150;2022-09-12T02:45:39;99780.00;;;10.08;74.84
49423;BME280;36998;51.974;20.150;2022-09-12T02:48:10;99777.09;;;10.09;75.25
49423;BME280;36998;51.974;20.150;2022-09-12T02:50:37;99779.47;;;10.13;75.06
49423;BME280;36998;51.974;20.150;2022-09-12T02:53:06;99775.56;;;10.15;75.14
49423;BME280;36998;51.974;20.150;2022-09-12T02:55:34;99784.50;;;10.24;75.26
49423;BME280;36998;51.974;20.150;2022-09-12T02:58:05;99780.97;;;10.31;75.58
49423;BME280;36998;51.974;20.150;2022-09-12T03:00:35;99782.28;;;10.36;75.14
49423;BME280;36998;51.974;20.150;2022-09-12T03:03:37;99776.03;;;10.43;
49423;BME280;36998;51.974;20.150;2022-09-12T03:12:08;99782.34;;;10.67;75.10
49423;BME280;36998;51.974;20.150;2022-09-12T03:18:03;99798.50;;;10.75;75.21
49423;BME280;36998;51.974;20.150;2022-09-12T03:20:45;99803.59;;;10.70;75.18
49423;BME280;36998;51.974;20.150;2022-09-12T03:23:23;99799.16;;;10.77;74.52
49423;BME280;36998;51.974;20.150;2022-09-12T03:25:56;99799.59;;;10.58;74.96
49423;BME280;36998;51.974;20.150;2022-09-12T03:28:23;99797.59;;;10.51;75.24
49423;BME280;36998;51.974;20.150;2022-09-12T03:30:49;99804.31;;;10.55;75.28
49423;BME280;36998;51.974;20.150;2022-09-12T03:33:21;99805.13;;;10.64;75.17
49423;BME280;36998;51.974;20.150;2022-09-12T03:35:47;99812.19;;;10.73;75.20
49423;BME280;36998;51.974;20.150;2022-09-12T03:38:13;99811.13;;;10.83;75.48
49423;BME280;36998;51.974;20.150;2022-09-12T03:40:39;99814.69;;;10.83;75.47
49423;BME280;36998;51.974;20.150;2022-09-12T03:43:07;99815.50;;;10.84;75.73
49423;BME280;36998;51.974;20.150;2022-09-12T03:45:33;99813.97;;;10.89;75.30
49423;BME280;36998;51.974;20.150;2022-09-12T03:47:59;99813.44;;;10.94;75.66
49423;BME280;36998;51.974;20.150;2022-09-12T03:50:24;99820.84;;;11.00;75.66
49423;BME280;36998;51.974;20.150;2022-09-12T03:52:50;99820.16;;;10.98;75.41
49423;BME280;36998;51.974;20.150;2022-09-12T03:55:15;99815.97;;;10.95;75.50
49423;BME280;36998;51.974;20.150;2022-09-12T03:57:42;99806.00;;;10.96;75.10
49423;BME280;36998;51.974;20.150;2022-09-12T04:00:07;99816.25;;;11.00;75.13
49423;BME280;36998;51.974;20.150;2022-09-12T04:02:41;99810.84;;;11.00;75.44
49423;BME280;36998;51.974;20.150;2022-09-12T04:05:07;99820.97;;;11.07;75.29
49423;BME280;36998;51.974;20.150;2022-09-12T04:07:32;99816.22;;;11.09;75.45
49423;BME280;36998;51.974;20.150;2022-09-12T04:09:58;99812.97;;;11.13;75.10
49423;BME280;36998;51.974;20.150;2022-09-12T04:12:23;99819.41;;;11.12;75.36
49423;BME280;36998;51.974;20.150;2022-09-12T04:14:49;99812.31;;;11.11;75.07
49423;BME280;36998;51.974;20.150;2022-09-12T04:17:14;99824.97;;;11.11;75.24
49423;BME280;36998;51.974;20.150;2022-09-12T04:19:40;99813.34;;;11.10;75.46
49423;BME280;36998;51.974;20.150;2022-09-12T04:22:05;99826.69;;;11.12;75.07
49423;BME280;36998;51.974;20.150;2022-09-12T04:24:32;99832.75;;;11.14;75.66
49423;BME280;36998;51.974;20.150;2022-09-12T04:26:58;99826.69;;;11.12;75.40
49423;BME280;36998;51.974;20.150;2022-09-12T04:29:23;99831.72;;;11.15;75.25
49423;BME280;36998;51.974;20.150;2022-09-12T04:31:48;99826.31;;;11.15;75.15
49423;BME280;36998;51.974;20.150;2022-09-12T04:34:14;99827.53;;;11.12;75.18
49423;BME280;36998;51.974;20.150;2022-09-12T04:36:40;99824.97;;;11.11;75.17
49423;BME280;36998;51.974;20.150;2022-09-12T04:39:05;99827.69;;;11.11;75.43
49423;BME280;36998;51.974;20.150;2022-09-12T04:41:36;99828.22;;;11.06;75.21
49423;BME280;36998;51.974;20.150;2022-09-12T04:44:07;99839.53;;;11.10;75.25
49423;BME280;36998;51.974;20.150;2022-09-12T04:46:36;99833.41;;;11.16;75.65
49423;BME280;36998;51.974;20.150;2022-09-12T04:49:03;99823.38;;;11.24;75.31
49423;BME280;36998;51.974;20.150;2022-09-12T04:51:32;99837.34;;;11.36;75.64
49423;BME280;36998;51.974;20.150;2022-09-12T04:54:00;99828.97;;;11.46;75.24
49423;BME280;36998;51.974;20.150;2022-09-12T04:56:27;99834.81;;;11.58;75.01
49423;BME280;36998;51.974;20.150;2022-09-12T04:58:53;99831.88;;;11.67;75.02
49423;BME280;36998;51.974;20.150;2022-09-12T05:01:21;99835.34;;;11.76;75.30
49423;BME280;36998;51.974;20.150;2022-09-12T05:03:48;99839.00;;;11.83;75.24
49423;BME280;36998;51.974;20.150;2022-09-12T05:06:16;99837.94;;;11.92;74.99
49423;BME280;36998;51.974;20.150;2022-09-12T05:08:42;99844.97;;;12.02;74.68
49423;BME280;36998;51.974;20.150;2022-09-12T05:11:13;99840.22;;;12.04;74.75
49423;BME280;36998;51.974;20.150;2022-09-12T05:13:39;99845.72;;;12.10;74.29
49423;BME280;36998;51.974;20.150;2022-09-12T05:16:05;99848.44;;;12.10;74.17
49423;BME280;36998;51.974;20.150;2022-09-12T05:18:33;99843.50;;;12.14;74.01
49423;BME280;36998;51.974;20.150;2022-09-12T05:21:00;99858.34;;;12.18;74.08
49423;BME280;36998;51.974;20.150;2022-09-12T05:23:27;99853.03;;;12.25;73.72
49423;BME280;36998;51.974;20.150;2022-09-12T05:25:55;99848.44;;;12.25;73.71
49423;BME280;36998;51.974;20.150;2022-09-12T05:28:23;99847.34;;;12.34;73.59
49423;BME280;36998;51.974;20.150;2022-09-12T05:31:00;99849.78;;;12.44;73.46
49423;BME280;36998;51.974;20.150;2022-09-12T05:33:26;99851.28;;;12.47;73.56
49423;BME280;36998;51.974;20.150;2022-09-12T05:35:52;99840.53;;;12.53;73.23
49423;BME280;36998;51.974;20.150;2022-09-12T05:38:17;99841.84;;;12.57;72.76
49423;BME280;36998;51.974;20.150;2022-09-12T05:40:43;99846.97;;;12.67;72.88
49423;BME280;36998;51.974;20.150;2022-09-12T05:43:08;99844.63;;;12.64;72.80
49423;BME280;36998;51.974;20.150;2022-09-12T05:45:35;99848.94;;;12.58;72.70
49423;BME280;36998;51.974;20.150;2022-09-12T05:48:01;99848.56;;;12.47;72.82
49423;BME280;36998;51.974;20.150;2022-09-12T05:50:26;99853.06;;;12.39;72.88
49423;BME280;36998;51.974;20.150;2022-09-12T05:52:52;99850.06;;;12.34;72.62
49423;BME280;36998;51.974;20.150;2022-09-12T05:55:19;99859.47;;;12.38;72.58
49423;BME280;36998;51.974;20.150;2022-09-12T05:57:44;99859.56;;;12.45;72.47
49423;BME280;36998;51.974;20.150;2022-09-12T06:00:11;99862.00;;;12.55;72.51
49423;BME280;36998;51.974;20.150;2022-09-12T06:02:37;99855.84;;;12.61;72.27
49423;BME280;36998;51.974;20.150;2022-09-12T06:05:03;99858.38;;;12.62;72.32
49423;BME280;36998;51.974;20.150;2022-09-12T06:07:28;99850.91;;;12.64;72.12
49423;BME280;36998;51.974;20.150;2022-09-12T06:09:54;99854.19;;;12.60;72.32
49423;BME280;36998;51.974;20.150;2022-09-12T06:12:19;99843.34;;;12.60;72.31
49423;BME280;36998;51.974;20.150;2022-09-12T06:14:44;99845.94;;;12.68;71.85
49423;BME280;36998;51.974;20.150;2022-09-12T06:17:10;99851.91;;;12.78;72.06
49423;BME280;36998;51.974;20.150;2022-09-12T06:19:36;99852.81;;;13.00;71.49
49423;BME280;36998;51.974;20.150;2022-09-12T06:22:01;99857.78;;;13.11;71.31
49423;BME280;36998;51.974;20.150;2022-09-12T06:24:27;99856.22;;;13.24;70.78
49423;BME280;36998;51.974;20.150;2022-09-12T06:26:53;99854.81;;;13.43;70.72
49423;BME280;36998;51.974;20.150;2022-09-12T06:29:19;99860.44;;;13.63;70.45
49423;BME280;36998;51.974;20.150;2022-09-12T06:31:44;99857.91;;;13.82;69.85
49423;BME280;36998;51.974;20.150;2022-09-12T06:34:12;99864.94;;;13.98;69.41
49423;BME280;36998;51.974;20.150;2022-09-12T06:36:40;99869.00;;;14.09;68.94
49423;BME280;36998;51.974;20.150;2022-09-12T06:39:12;99869.41;;;14.34;68.46
49423;BME280;36998;51.974;20.150;2022-09-12T06:41:37;99870.41;;;14.55;68.06
49423;BME280;36998;51.974;20.150;2022-09-12T06:44:03;99868.75;;;14.54;67.68
49423;BME280;36998;51.974;20.150;2022-09-12T06:46:29;99878.16;;;14.58;67.42
49423;BME280;36998;51.974;20.150;2022-09-12T06:48:55;99868.44;;;14.70;67.12
49423;BME280;36998;51.974;20.150;2022-09-12T06:51:22;99872.28;;;14.82;66.75
49423;BME280;36998;51.974;20.150;2022-09-12T06:53:48;99869.56;;;14.82;66.78
49423;BME280;36998;51.974;20.150;2022-09-12T06:56:16;99873.75;;;14.85;66.63
49423;BME280;36998;51.974;20.150;2022-09-12T06:58:43;99879.00;;;14.93;66.55
49423;BME280;36998;51.974;20.150;2022-09-12T07:01:17;99880.75;;;15.14;65.84
49423;BME280;36998;51.974;20.150;2022-09-12T07:03:46;99881.91;;;15.39;65.45
49423;BME280;36998;51.974;20.150;2022-09-12T07:06:14;99886.56;;;15.52;64.80
49423;BME280;36998;51.974;20.150;2022-09-12T07:08:40;99880.53;;;15.63;64.57
49423;BME280;36998;51.974;20.150;2022-09-12T07:11:18;99876.81;;;15.78;64.44
49423;BME280;36998;51.974;20.150;2022-09-12T07:13:46;99883.94;;;15.85;63.72
49423;BME280;36998;51.974;20.150;2022-09-12T07:16:12;99887.13;;;16.02;63.54
49423;BME280;36998;51.974;20.150;2022-09-12T07:18:38;99882.09;;;16.12;62.93
49423;BME280;36998;51.974;20.150;2022-09-12T07:21:09;99889.63;;;16.17;62.84
49423;BME280;36998;51.974;20.150;2022-09-12T07:23:36;99888.16;;;16.28;62.68
49423;BME280;36998;51.974;20.150;2022-09-12T07:26:02;99888.78;;;16.43;62.50
49423;BME280;36998;51.974;20.150;2022-09-12T07:28:30;99892.75;;;16.54;62.16
49423;BME280;36998;51.974;20.150;2022-09-12T07:30:56;99880.78;;;16.68;61.50
49423;BME280;36998;51.974;20.150;2022-09-12T07:33:26;99892.28;;;16.70;61.19
49423;BME280;36998;51.974;20.150;2022-09-12T07:35:52;99887.25;;;16.87;60.87
49423;BME280;36998;51.974;20.150;2022-09-12T07:38:22;99895.41;;;17.00;60.89
49423;BME280;36998;51.974;20.150;2022-09-12T07:40:48;99900.16;;;17.18;60.01
49423;BME280;36998;51.974;20.150;2022-09-12T07:43:13;99896.38;;;17.19;59.90
49423;BME280;36998;51.974;20.150;2022-09-12T07:45:39;99901.44;;;17.16;59.80
49423;BME280;36998;51.974;20.150;2022-09-12T07:48:09;99888.41;;;17.18;59.91
49423;BME280;36998;51.974;20.150;2022-09-12T07:50:35;99891.16;;;17.18;59.73
49423;BME280;36998;51.974;20.150;2022-09-12T07:53:03;99895.41;;;17.07;59.77
49423;BME280;36998;51.974;20.150;2022-09-12T07:55:30;99898.16;;;17.00;59.66
49423;BME280;36998;51.974;20.150;2022-09-12T07:57:55;99904.88;;;16.98;60.00
49423;BME280;36998;51.974;20.150;2022-09-12T08:00:21;99908.41;;;16.98;59.44
49423;BME280;36998;51.974;20.150;2022-09-12T08:02:52;99901.31;;;16.97;59.33
49423;BME280;36998;51.974;20.150;2022-09-12T08:05:19;99906.09;;;17.02;59.50
49423;BME280;36998;51.974;20.150;2022-09-12T08:07:47;99898.09;;;17.14;59.20
49423;BME280;36998;51.974;20.150;2022-09-12T08:10:14;99905.38;;;17.33;59.07
49423;BME280;36998;51.974;20.150;2022-09-12T08:12:40;99895.78;;;17.55;58.61
49423;BME280;36998;51.974;20.150;2022-09-12T08:15:06;99906.63;;;17.69;58.35
49423;BME280;36998;51.974;20.150;2022-09-12T08:17:32;99914.38;;;17.72;58.22
49423;BME280;36998;51.974;20.150;2022-09-12T08:19:58;99905.59;;;17.76;57.85
49423;BME280;36998;51.974;20.150;2022-09-12T08:22:23;99909.34;;;17.82;57.41
49423;BME280;36998;51.974;20.150;2022-09-12T08:24:50;99911.59;;;17.85;57.63
49423;BME280;36998;51.974;20.150;2022-09-12T08:27:15;99908.88;;;17.85;57.18
49423;BME280;36998;51.974;20.150;2022-09-12T08:29:41;99913.91;;;17.88;57.14
49423;BME280;36998;51.974;20.150;2022-09-12T08:32:06;99909.81;;;18.04;56.92
49423;BME280;36998;51.974;20.150;2022-09-12T08:34:31;99918.72;;;18.18;56.48
49423;BME280;36998;51.974;20.150;2022-09-12T08:36:57;99906.22;;;18.35;56.40
49423;BME280;36998;51.974;20.150;2022-09-12T08:39:23;99908.53;;;18.57;56.15
49423;BME280;36998;51.974;20.150;2022-09-12T08:41:58;99898.72;;;18.74;55.68
49423;BME280;36998;51.974;20.150;2022-09-12T08:45:03;99900.25;;;18.88;54.98
49423;BME280;36998;51.974;20.150;2022-09-12T08:47:35;99902.22;;;19.00;54.79
49423;BME280;36998;51.974;20.150;2022-09-12T08:52:59;99907.25;;;19.03;54.21
49423;BME280;36998;51.974;20.150;2022-09-12T08:55:33;99899.13;;;19.33;53.75
49423;BME280;36998;51.974;20.150;2022-09-12T08:58:01;99897.94;;;19.40;53.22
49423;BME280;36998;51.974;20.150;2022-09-12T09:00:37;99899.41;;;19.43;52.43
49423;BME280;36998;51.974;20.150;2022-09-12T09:06:23;99903.88;;;19.86;51.61
49423;BME280;36998;51.974;20.150;2022-09-12T09:09:25;99895.38;;;20.06;51.17
49423;BME280;36998;51.974;20.150;2022-09-12T09:14:55;99897.94;;;20.66;50.34
49423;BME280;36998;51.974;20.150;2022-09-12T09:17:40;99903.16;;;21.15;49.11
49423;BME280;36998;51.974;20.150;2022-09-12T09:20:29;99896.22;;;21.12;48.38
49423;BME280;36998;51.974;20.150;2022-09-12T09:23:06;99896.13;;;20.95;48.45
49423;BME280;36998;51.974;20.150;2022-09-12T09:25:38;99903.53;;;21.07;47.96
49423;BME280;36998;51.974;20.150;2022-09-12T09:28:13;99889.59;;;20.96;47.39
49423;BME280;36998;51.974;20.150;2022-09-12T09:30:42;99894.97;;;20.79;46.91
49423;BME280;36998;51.974;20.150;2022-09-12T09:33:17;99909.53;;;20.68;47.19
49423;BME280;36998;51.974;20.150;2022-09-12T09:35:46;99914.78;;;20.58;47.06
49423;BME280;36998;51.974;20.150;2022-09-12T09:38:22;99917.38;;;20.41;47.53
49423;BME280;36998;51.974;20.150;2022-09-12T09:40:52;99921.88;;;20.35;47.43
49423;BME280;36998;51.974;20.150;2022-09-12T09:43:21;99912.72;;;20.42;47.26
49423;BME280;36998;51.974;20.150;2022-09-12T09:45:48;99913.88;;;20.22;47.58
49423;BME280;36998;51.974;20.150;2022-09-12T09:48:21;99916.56;;;19.99;48.25
49423;BME280;36998;51.974;20.150;2022-09-12T09:50:49;99920.53;;;19.73;48.32
49423;BME280;36998;51.974;20.150;2022-09-12T09:53:31;99918.19;;;19.39;48.81
49423;BME280;36998;51.974;20.150;2022-09-12T09:56:01;99917.34;;;19.39;48.81
49423;BME280;36998;51.974;20.150;2022-09-12T09:58:31;99918.63;;;19.55;48.47
49423;BME280;36998;51.974;20.150;2022-09-12T10:01:02;99926.53;;;19.45;49.18
49423;BME280;36998;51.974;20.150;2022-09-12T10:03:36;99931.88;;;19.21;49.42
49423;BME280;36998;51.974;20.150;2022-09-12T10:08:44;99924.97;;;19.00;49.55
49423;BME280;36998;51.974;20.150;2022-09-12T10:11:17;99929.59;;;19.18;49.55
49423;BME280;36998;51.974;20.150;2022-09-12T10:18:48;99929.56;;;19.55;49.07
49423;BME280;36998;51.974;20.150;2022-09-12T10:21:33;99936.00;;;19.30;49.60
49423;BME280;36998;51.974;20.150;2022-09-12T10:24:03;99927.78;;;19.12;49.59
49423;BME280;36998;51.974;20.150;2022-09-12T10:26:34;99937.13;;;19.04;49.90
49423;BME280;36998;51.974;20.150;2022-09-12T10:29:05;99933.31;;;19.05;49.78
49423;BME280;36998;51.974;20.150;2022-09-12T10:31:43;99941.72;;;19.10;49.90
49423;BME280;36998;51.974;20.150;2022-09-12T10:34:43;99937.13;;;19.23;49.72
49423;BME280;36998;51.974;20.150;2022-09-12T10:37:22;99940.41;;;19.31;49.55
49423;BME280;36998;51.974;20.150;2022-09-12T10:39:53;99940.94;;;19.40;49.33
49423;BME280;36998;51.974;20.150;2022-09-12T10:45:17;99931.31;;;19.98;49.10
49423;BME280;36998;51.974;20.150;2022-09-12T10:47:42;99936.75;;;20.16;48.81
49423;BME280;36998;51.974;20.150;2022-09-12T10:50:28;99931.31;;;20.28;48.53
49423;BME280;36998;51.974;20.150;2022-09-12T10:53:12;99929.34;;;20.58;48.17
49423;BME280;36998;51.974;20.150;2022-09-12T10:55:40;99930.63;;;20.56;47.49
49423;BME280;36998;51.974;20.150;2022-09-12T10:58:21;99931.94;;;20.53;47.77
49423;BME280;36998;51.974;20.150;2022-09-12T11:01:00;99936.72;;;20.58;47.34
49423;BME280;36998;51.974;20.150;2022-09-12T11:03:55;99938.88;;;20.56;47.34
49423;BME280;36998;51.974;20.150;2022-09-12T11:06:35;99932.19;;;20.75;46.96
49423;BME280;36998;51.974;20.150;2022-09-12T11:09:26;99936.88;;;20.87;46.79
49423;BME280;36998;51.974;20.150;2022-09-12T11:12:03;99940.16;;;21.24;46.11
49423;BME280;36998;51.974;20.150;2022-09-12T11:26:33;99931.75;;;22.79;43.08
49423;BME280;36998;51.974;20.150;2022-09-12T11:34:56;99929.34;;;23.38;41.65
49423;BME280;36998;51.974;20.150;2022-09-12T11:40:33;99933.78;;;23.44;41.70
49423;BME280;36998;51.974;20.150;2022-09-12T11:45:56;99928.19;;;24.37;39.88
49423;BME280;36998;51.974;20.150;2022-09-12T11:48:36;99930.44;;;24.40;39.29
49423;BME280;36998;51.974;20.150;2022-09-12T11:51:06;99933.19;;;24.40;39.74
49423;BME280;36998;51.974;20.150;2022-09-12T11:53:38;99922.22;;;26.75;35.85
49423;BME280;36998;51.974;20.150;2022-09-12T11:56:14;99932.19;;;26.91;35.18
49423;BME280;36998;51.974;20.150;2022-09-12T11:58:45;99927.09;;;25.76;36.24
49423;BME280;36998;51.974;20.150;2022-09-12T12:01:24;99939.41;;;24.52;38.15
49423;BME280;36998;51.974;20.150;2022-09-12T12:03:50;99942.78;;;24.05;38.69
49423;BME280;36998;51.974;20.150;2022-09-12T12:06:25;99945.91;;;23.65;39.24
49423;BME280;36998;51.974;20.150;2022-09-12T12:08:54;99942.25;;;23.37;39.51
49423;BME280;36998;51.974;20.150;2022-09-12T12:11:31;99943.19;;;23.04;39.74
49423;BME280;36998;51.974;20.150;2022-09-12T12:14:02;99947.63;;;22.72;40.31
49423;BME280;36998;51.974;20.150;2022-09-12T12:16:39;99952.38;;;22.42;41.33
49423;BME280;36998;51.974;20.150;2022-09-12T12:21:40;99944.81;;;21.76;42.04
49423;BME280;36998;51.974;20.150;2022-09-12T12:29:36;99947.41;;;22.56;41.14
49423;BME280;36998;51.974;20.150;2022-09-12T12:34:38;99931.72;;;24.00;38.23
49423;BME280;36998;51.974;20.150;2022-09-12T12:47:39;99927.53;;;25.42;35.34
49423;BME280;36998;51.974;20.150;2022-09-12T12:50:23;99921.59;;;27.34;32.50
49423;BME280;36998;51.974;20.150;2022-09-12T12:53:00;99924.66;;;27.22;32.30
49423;BME280;36998;51.974;20.150;2022-09-12T12:55:34;99937.41;;;25.90;33.79
49423;BME280;36998;51.974;20.150;2022-09-12T12:58:04;99931.41;;;25.41;34.21
49423;BME280;36998;51.974;20.150;2022-09-12T13:00:34;99938.22;;;25.23;34.67
49423;BME280;36998;51.974;20.150;2022-09-12T13:03:09;99931.88;;;25.96;34.21
49423;BME280;36998;51.974;20.150;2022-09-12T13:05:47;99913.19;;;29.74;29.35
49423;BME280;36998;51.974;20.150;2022-09-12T13:10:50;99912.19;;;32.87;25.39
49423;BME280;36998;51.974;20.150;2022-09-12T13:13:23;99911.38;;;35.85;22.32
49423;BME280;36998;51.974;20.150;2022-09-12T13:15:51;99908.03;;;38.14;20.24
49423;BME280;36998;51.974;20.150;2022-09-12T13:18:22;99898.66;;;39.62;18.63
49423;BME280;36998;51.974;20.150;2022-09-12T13:20:54;99906.22;;;40.12;18.36
49423;BME280;36998;51.974;20.150;2022-09-12T13:23:26;99904.50;;;37.16;20.43
49423;BME280;36998;51.974;20.150;2022-09-12T13:25:55;99916.19;;;33.92;22.67
49423;BME280;36998;51.974;20.150;2022-09-12T13:28:21;99927.00;;;31.84;25.00
49423;BME280;36998;51.974;20.150;2022-09-12T13:31:00;99917.91;;;30.11;27.32
49423;BME280;36998;51.974;20.150;2022-09-12T13:33:34;99922.38;;;28.97;28.09
49423;BME280;36998;51.974;20.150;2022-09-12T13:36:24;99933.81;;;27.88;29.65
49423;BME280;36998;51.974;20.150;2022-09-12T13:39:02;99933.47;;;27.40;30.71
49423;BME280;36998;51.974;20.150;2022-09-12T13:41:39;99925.75;;;27.31;30.79
49423;BME280;36998;51.974;20.150;2022-09-12T13:44:12;99923.59;;;28.62;29.56
49423;BME280;36998;51.974;20.150;2022-09-12T13:46:40;99920.53;;;31.47;26.26
49423;BME280;36998;51.974;20.150;2022-09-12T13:49:31;99918.94;;;31.68;25.61
49423;BME280;36998;51.974;20.150;2022-09-12T13:52:04;99920.63;;;31.42;25.82
49423;BME280;36998;51.974;20.150;2022-09-12T13:54:31;99917.13;;;32.59;24.47
49423;BME280;36998;51.974;20.150;2022-09-12T13:56:57;99914.19;;;33.84;23.21
49423;BME280;36998;51.974;20.150;2022-09-12T13:59:24;99914.41;;;34.31;22.52
49423;BME280;36998;51.974;20.150;2022-09-12T14:01:49;99911.16;;;32.74;23.92
49423;BME280;36998;51.974;20.150;2022-09-12T14:04:23;99918.06;;;32.09;25.03
49423;BME280;36998;51.974;20.150;2022-09-12T14:07:20;99909.28;;;34.15;22.75
49423;BME280;36998;51.974;20.150;2022-09-12T14:09:55;99908.97;;;35.07;21.86
49423;BME280;36998;51.974;20.150;2022-09-12T14:12:28;99912.59;;;36.60;20.32
49423;BME280;36998;51.974;20.150;2022-09-12T14:14:55;99909.75;;;38.19;19.00
49423;BME280;36998;51.974;20.150;2022-09-12T14:17:32;99909.03;;;38.78;18.91
49423;BME280;36998;51.974;20.150;2022-09-12T14:20:06;99902.34;;;38.99;17.65
49423;BME280;36998;51.974;20.150;2022-09-12T14:22:34;99909.69;;;38.44;18.15
49423;BME280;36998;51.974;20.150;2022-09-12T14:25:02;99908.69;;;36.97;19.26
49423;BME280;36998;51.974;20.150;2022-09-12T14:27:40;99910.59;;;35.55;20.14
49423;BME280;36998;51.974;20.150;2022-09-12T14:30:32;99912.22;;;33.93;21.84
49423;BME280;36998;51.974;20.150;2022-09-12T14:35:41;99904.28;;;34.73;20.93
49423;BME280;36998;51.974;20.150;2022-09-12T14:40:40;99917.56;;;33.06;22.51
49423;BME280;36998;51.974;20.150;2022-09-12T14:43:20;99920.31;;;32.21;23.54
49423;BME280;36998;51.974;20.150;2022-09-12T14:45:54;99918.13;;;30.99;24.47
49423;BME280;36998;51.974;20.150;2022-09-12T14:48:21;99918.75;;;29.74;25.90